Bruceville, Indiana
Current Conditions -  °F | °C
As of 2:53 PM on Monday 24 Nov 2014 (Local Time) from KLWV Reporting Station
Overcast Overcast  
Wind Chill: 34°   Ceiling: 4900
Heat Index: 43°   Visibility: 10mi
Dew Point: 30°   Wind: 21mph
Humidity: 60%   Direction: 240°WSW
Pressure: 29.77"   Gusts: 24mph
Location:  38.76°N, 87.42°W
Report Text: KLWV 242053Z AUTO 24018G21KT 10SM OVC049 06/M01 A2977 RMK AO2 PK WND 23027/2041 SLP080 T00611011 51038
Loading
Personal Weather Stations






























Interactive Weather Map New forecast layout! Learn more

10-Day Weather Forecast

Advertisements
Track Severe Weather on mobile